sensor_id;sensor_type;location;lat;lon;timestamp;temperature;humidity
40253;DHT22;25972;51.854;4.534;2023-03-30T00:02:26;13.60;99.90
40253;DHT22;25972;51.854;4.534;2023-03-30T00:04:57;13.50;99.90
40253;DHT22;25972;51.854;4.534;2023-03-30T00:07:30;13.50;99.90
40253;DHT22;25972;51.854;4.534;2023-03-30T00:09:56;13.50;99.90
40253;DHT22;25972;51.854;4.534;2023-03-30T00:12:23;13.40;99.90
40253;DHT22;25972;51.854;4.534;2023-03-30T00:14:49;13.50;99.90
40253;DHT22;25972;51.854;4.534;2023-03-30T00:17:15;13.50;99.90
40253;DHT22;25972;51.854;4.534;2023-03-30T00:19:42;13.50;99.90
40253;DHT22;25972;51.854;4.534;2023-03-30T00:22:08;13.50;99.90
40253;DHT22;25972;51.854;4.534;2023-03-30T00:24:35;13.40;99.90
40253;DHT22;25972;51.854;4.534;2023-03-30T00:27:03;13.30;99.90
40253;DHT22;25972;51.854;4.534;2023-03-30T00:29:29;13.30;99.90
40253;DHT22;25972;51.854;4.534;2023-03-30T00:31:55;13.20;99.90
40253;DHT22;25972;51.854;4.534;2023-03-30T00:34:22;13.20;99.90
40253;DHT22;25972;51.854;4.534;2023-03-30T00:36:49;13.20;99.90
40253;DHT22;25972;51.854;4.534;2023-03-30T00:39:18;13.10;99.90
40253;DHT22;25972;51.854;4.534;2023-03-30T00:41:47;13.10;99.90
40253;DHT22;25972;51.854;4.534;2023-03-30T00:47:18;12.90;99.90
40253;DHT22;25972;51.854;4.534;2023-03-30T00:49:47;12.90;99.90
40253;DHT22;25972;51.854;4.534;2023-03-30T00:52:14;12.80;99.90
40253;DHT22;25972;51.854;4.534;2023-03-30T00:54:44;12.80;99.90
40253;DHT22;25972;51.854;4.534;2023-03-30T00:57:12;12.70;99.90
40253;DHT22;25972;51.854;4.534;2023-03-30T00:59:39;12.70;99.90
40253;DHT22;25972;51.854;4.534;2023-03-30T01:02:05;12.70;99.90
40253;DHT22;25972;51.854;4.534;2023-03-30T01:04:31;12.60;99.90
40253;DHT22;25972;51.854;4.534;2023-03-30T01:06:58;12.60;99.90
40253;DHT22;25972;51.854;4.534;2023-03-30T01:09:25;12.60;99.90
40253;DHT22;25972;51.854;4.534;2023-03-30T01:11:51;12.60;99.90
40253;DHT22;25972;51.854;4.534;2023-03-30T01:14:17;12.60;99.90
40253;DHT22;25972;51.854;4.534;2023-03-30T01:19:53;12.60;99.90
40253;DHT22;25972;51.854;4.534;2023-03-30T01:22:46;12.60;99.90
40253;DHT22;25972;51.854;4.534;2023-03-30T01:28:07;12.60;99.90
40253;DHT22;25972;51.854;4.534;2023-03-30T01:47:16;12.50;99.90
40253;DHT22;25972;51.854;4.534;2023-03-30T01:55:19;12.40;99.90
40253;DHT22;25972;51.854;4.534;2023-03-30T01:58:00;12.40;99.90
40253;DHT22;25972;51.854;4.534;2023-03-30T02:00:28;12.40;99.90
40253;DHT22;25972;51.854;4.534;2023-03-30T02:03:01;12.30;99.90
40253;DHT22;25972;51.854;4.534;2023-03-30T02:05:32;12.40;99.90
40253;DHT22;25972;51.854;4.534;2023-03-30T02:08:03;12.40;99.90
40253;DHT22;25972;51.854;4.534;2023-03-30T02:10:32;12.40;99.90
40253;DHT22;25972;51.854;4.534;2023-03-30T02:12:59;12.50;99.90
40253;DHT22;25972;51.854;4.534;2023-03-30T02:15:32;12.50;99.90
40253;DHT22;25972;51.854;4.534;2023-03-30T02:18:00;12.60;99.90
40253;DHT22;25972;51.854;4.534;2023-03-30T02:20:26;12.60;99.90
40253;DHT22;25972;51.854;4.534;2023-03-30T02:22:53;12.60;99.90
40253;DHT22;25972;51.854;4.534;2023-03-30T02:25:20;12.70;99.90
40253;DHT22;25972;51.854;4.534;2023-03-30T02:27:46;12.70;99.90
40253;DHT22;25972;51.854;4.534;2023-03-30T02:30:13;12.70;99.90
40253;DHT22;25972;51.854;4.534;2023-03-30T02:32:52;12.60;99.90
40253;DHT22;25972;51.854;4.534;2023-03-30T02:40:49;12.70;99.90
40253;DHT22;25972;51.854;4.534;2023-03-30T02:46:27;12.80;99.90
40253;DHT22;25972;51.854;4.534;2023-03-30T02:54:44;12.80;99.90
40253;DHT22;25972;51.854;4.534;2023-03-30T03:00:44;12.80;99.90
40253;DHT22;25972;51.854;4.534;2023-03-30T03:03:27;12.80;99.90
40253;DHT22;25972;51.854;4.534;2023-03-30T03:05:56;12.80;99.90
40253;DHT22;25972;51.854;4.534;2023-03-30T03:08:35;12.80;99.90
40253;DHT22;25972;51.854;4.534;2023-03-30T03:11:03;12.80;99.90
40253;DHT22;25972;51.854;4.534;2023-03-30T03:13:29;12.90;99.90
40253;DHT22;25972;51.854;4.534;2023-03-30T03:15:56;12.90;99.90
40253;DHT22;25972;51.854;4.534;2023-03-30T03:18:24;13.00;99.90
40253;DHT22;25972;51.854;4.534;2023-03-30T03:20:50;12.90;99.90
40253;DHT22;25972;51.854;4.534;2023-03-30T03:23:18;13.00;99.90
40253;DHT22;25972;51.854;4.534;2023-03-30T03:25:48;13.00;99.90
40253;DHT22;25972;51.854;4.534;2023-03-30T03:28:16;12.90;99.90
40253;DHT22;25972;51.854;4.534;2023-03-30T03:30:48;13.00;99.90
40253;DHT22;25972;51.854;4.534;2023-03-30T03:33:18;13.00;99.90
40253;DHT22;25972;51.854;4.534;2023-03-30T03:35:56;13.10;99.90
40253;DHT22;25972;51.854;4.534;2023-03-30T03:38:27;13.10;99.90
40253;DHT22;25972;51.854;4.534;2023-03-30T03:40:57;13.00;99.90
40253;DHT22;25972;51.854;4.534;2023-03-30T03:43:24;13.10;99.90
40253;DHT22;25972;51.854;4.534;2023-03-30T03:45:51;13.00;99.90
40253;DHT22;25972;51.854;4.534;2023-03-30T03:48:19;13.10;99.90
40253;DHT22;25972;51.854;4.534;2023-03-30T03:50:56;13.10;99.90
40253;DHT22;25972;51.854;4.534;2023-03-30T03:53:23;13.10;99.90
40253;DHT22;25972;51.854;4.534;2023-03-30T03:55:53;13.00;99.90
40253;DHT22;25972;51.854;4.534;2023-03-30T03:58:20;13.00;99.90
40253;DHT22;25972;51.854;4.534;2023-03-30T04:00:47;12.90;99.90
40253;DHT22;25972;51.854;4.534;2023-03-30T04:03:13;12.90;99.90
40253;DHT22;25972;51.854;4.534;2023-03-30T04:05:39;12.80;99.90
40253;DHT22;25972;51.854;4.534;2023-03-30T04:08:06;12.80;99.90
40253;DHT22;25972;51.854;4.534;2023-03-30T04:10:37;12.70;99.90
40253;DHT22;25972;51.854;4.534;2023-03-30T04:13:17;12.70;99.90
40253;DHT22;25972;51.854;4.534;2023-03-30T04:16:02;12.70;99.90
40253;DHT22;25972;51.854;4.534;2023-03-30T04:18:46;12.60;99.90
40253;DHT22;25972;51.854;4.534;2023-03-30T04:21:27;12.60;99.90
40253;DHT22;25972;51.854;4.534;2023-03-30T04:24:00;12.50;99.90
40253;DHT22;25972;51.854;4.534;2023-03-30T04:26:44;12.60;99.90
40253;DHT22;25972;51.854;4.534;2023-03-30T04:29:28;12.50;99.90
40253;DHT22;25972;51.854;4.534;2023-03-30T04:32:12;12.40;99.90
40253;DHT22;25972;51.854;4.534;2023-03-30T04:34:56;12.40;99.90
40253;DHT22;25972;51.854;4.534;2023-03-30T04:37:33;12.40;99.90
40253;DHT22;25972;51.854;4.534;2023-03-30T04:40:04;12.30;99.90
40253;DHT22;25972;51.854;4.534;2023-03-30T04:42:48;12.30;99.90
40253;DHT22;25972;51.854;4.534;2023-03-30T04:45:17;12.30;99.90
40253;DHT22;25972;51.854;4.534;2023-03-30T04:48:08;12.30;99.90
40253;DHT22;25972;51.854;4.534;2023-03-30T04:50:54;12.20;99.90
40253;DHT22;25972;51.854;4.534;2023-03-30T04:53:50;12.20;99.90
40253;DHT22;25972;51.854;4.534;2023-03-30T04:56:37;12.20;99.90
40253;DHT22;25972;51.854;4.534;2023-03-30T04:59:22;12.20;99.90
40253;DHT22;25972;51.854;4.534;2023-03-30T05:02:07;12.10;99.90
40253;DHT22;25972;51.854;4.534;2023-03-30T05:04:45;12.00;99.90
40253;DHT22;25972;51.854;4.534;2023-03-30T05:07:18;12.00;99.90
40253;DHT22;25972;51.854;4.534;2023-03-30T05:09:57;11.90;99.90
40253;DHT22;25972;51.854;4.534;2023-03-30T05:12:52;11.90;99.90
40253;DHT22;25972;51.854;4.534;2023-03-30T05:15:38;11.90;99.90
40253;DHT22;25972;51.854;4.534;2023-03-30T05:18:07;11.80;99.90
40253;DHT22;25972;51.854;4.534;2023-03-30T05:20:45;11.70;99.90
40253;DHT22;25972;51.854;4.534;2023-03-30T05:23:31;11.70;99.90
40253;DHT22;25972;51.854;4.534;2023-03-30T05:26:08;11.60;99.90
40253;DHT22;25972;51.854;4.534;2023-03-30T05:29:12;11.60;99.90
40253;DHT22;25972;51.854;4.534;2023-03-30T05:32:13;11.50;99.90
40253;DHT22;25972;51.854;4.534;2023-03-30T05:34:51;11.50;99.90
40253;DHT22;25972;51.854;4.534;2023-03-30T05:37:26;11.50;99.90
40253;DHT22;25972;51.854;4.534;2023-03-30T05:40:06;11.50;99.90
40253;DHT22;25972;51.854;4.534;2023-03-30T05:42:54;11.50;99.90
40253;DHT22;25972;51.854;4.534;2023-03-30T05:45:50;11.40;99.90
40253;DHT22;25972;51.854;4.534;2023-03-30T05:48:34;11.40;99.90
40253;DHT22;25972;51.854;4.534;2023-03-30T05:51:03;11.40;99.90
40253;DHT22;25972;51.854;4.534;2023-03-30T05:53:47;11.40;99.90
40253;DHT22;25972;51.854;4.534;2023-03-30T05:56:32;11.40;99.90
40253;DHT22;25972;51.854;4.534;2023-03-30T05:59:18;11.40;99.90
40253;DHT22;25972;51.854;4.534;2023-03-30T06:02:21;11.40;99.90
40253;DHT22;25972;51.854;4.534;2023-03-30T06:04:49;11.50;99.90
40253;DHT22;25972;51.854;4.534;2023-03-30T06:07:16;11.50;99.90
40253;DHT22;25972;51.854;4.534;2023-03-30T06:09:43;11.60;99.90
40253;DHT22;25972;51.854;4.534;2023-03-30T06:12:20;11.60;99.90
40253;DHT22;25972;51.854;4.534;2023-03-30T06:14:46;11.70;99.90
40253;DHT22;25972;51.854;4.534;2023-03-30T06:17:22;11.60;99.90
40253;DHT22;25972;51.854;4.534;2023-03-30T06:19:48;11.70;99.90
40253;DHT22;25972;51.854;4.534;2023-03-30T06:22:14;11.70;99.90
40253;DHT22;25972;51.854;4.534;2023-03-30T06:24:46;11.70;99.90
40253;DHT22;25972;51.854;4.534;2023-03-30T06:27:13;11.80;99.90
40253;DHT22;25972;51.854;4.534;2023-03-30T06:29:39;11.90;99.90
40253;DHT22;25972;51.854;4.534;2023-03-30T06:32:06;11.90;99.90
40253;DHT22;25972;51.854;4.534;2023-03-30T06:34:47;11.90;99.90
40253;DHT22;25972;51.854;4.534;2023-03-30T06:37:14;11.90;99.90
40253;DHT22;25972;51.854;4.534;2023-03-30T06:39:40;11.90;99.90
40253;DHT22;25972;51.854;4.534;2023-03-30T06:42:06;12.00;99.90
40253;DHT22;25972;51.854;4.534;2023-03-30T06:44:50;12.00;99.90
40253;DHT22;25972;51.854;4.534;2023-03-30T06:47:18;12.00;99.90
40253;DHT22;25972;51.854;4.534;2023-03-30T06:49:44;12.00;99.90
40253;DHT22;25972;51.854;4.534;2023-03-30T06:52:33;12.00;99.90
40253;DHT22;25972;51.854;4.534;2023-03-30T06:54:59;11.90;99.90
40253;DHT22;25972;51.854;4.534;2023-03-30T06:57:26;12.00;99.90
40253;DHT22;25972;51.854;4.534;2023-03-30T06:59:52;11.90;99.90
40253;DHT22;25972;51.854;4.534;2023-03-30T07:02:43;12.00;99.90
40253;DHT22;25972;51.854;4.534;2023-03-30T07:05:12;12.00;99.90
40253;DHT22;25972;51.854;4.534;2023-03-30T07:07:57;12.10;99.90
40253;DHT22;25972;51.854;4.534;2023-03-30T07:10:24;12.20;99.90
40253;DHT22;25972;51.854;4.534;2023-03-30T07:12:50;12.20;99.90
40253;DHT22;25972;51.854;4.534;2023-03-30T07:15:18;12.20;99.90
40253;DHT22;25972;51.854;4.534;2023-03-30T07:17:46;12.30;99.90
40253;DHT22;25972;51.854;4.534;2023-03-30T07:20:12;12.30;99.90
40253;DHT22;25972;51.854;4.534;2023-03-30T07:23:07;12.30;99.90
40253;DHT22;25972;51.854;4.534;2023-03-30T07:25:33;12.30;99.90
40253;DHT22;25972;51.854;4.534;2023-03-30T07:28:08;12.30;99.90
40253;DHT22;25972;51.854;4.534;2023-03-30T07:30:35;12.30;99.90
40253;DHT22;25972;51.854;4.534;2023-03-30T07:33:04;12.40;99.90
40253;DHT22;25972;51.854;4.534;2023-03-30T07:35:31;12.30;99.90
40253;DHT22;25972;51.854;4.534;2023-03-30T07:37:59;12.30;99.90
40253;DHT22;25972;51.854;4.534;2023-03-30T07:40:25;12.30;99.90
40253;DHT22;25972;51.854;4.534;2023-03-30T07:42:52;12.30;99.90
40253;DHT22;25972;51.854;4.534;2023-03-30T07:45:18;12.30;99.90
40253;DHT22;25972;51.854;4.534;2023-03-30T07:47:44;12.30;99.90
40253;DHT22;25972;51.854;4.534;2023-03-30T07:50:10;12.20;99.90
40253;DHT22;25972;51.854;4.534;2023-03-30T07:52:36;12.20;99.90
40253;DHT22;25972;51.854;4.534;2023-03-30T07:55:03;12.10;99.90
40253;DHT22;25972;51.854;4.534;2023-03-30T07:57:39;12.20;99.90
40253;DHT22;25972;51.854;4.534;2023-03-30T08:00:05;12.10;99.90
40253;DHT22;25972;51.854;4.534;2023-03-30T08:03:02;12.00;99.90
40253;DHT22;25972;51.854;4.534;2023-03-30T08:05:29;11.90;99.90
40253;DHT22;25972;51.854;4.534;2023-03-30T08:08:26;11.80;99.90
40253;DHT22;25972;51.854;4.534;2023-03-30T08:10:53;11.80;99.90
40253;DHT22;25972;51.854;4.534;2023-03-30T08:13:19;11.80;99.90
40253;DHT22;25972;51.854;4.534;2023-03-30T08:15:45;12.00;99.90
40253;DHT22;25972;51.854;4.534;2023-03-30T08:18:11;12.10;99.90
40253;DHT22;25972;51.854;4.534;2023-03-30T08:20:39;12.20;99.90
40253;DHT22;25972;51.854;4.534;2023-03-30T08:23:06;12.30;99.90
40253;DHT22;25972;51.854;4.534;2023-03-30T08:25:32;12.40;99.90
40253;DHT22;25972;51.854;4.534;2023-03-30T08:27:58;12.60;99.90
40253;DHT22;25972;51.854;4.534;2023-03-30T08:30:25;12.80;99.90
40253;DHT22;25972;51.854;4.534;2023-03-30T08:32:51;12.80;99.90
40253;DHT22;25972;51.854;4.534;2023-03-30T08:35:18;12.90;99.90
40253;DHT22;25972;51.854;4.534;2023-03-30T08:37:44;13.00;99.90
40253;DHT22;25972;51.854;4.534;2023-03-30T08:40:11;13.10;99.90
40253;DHT22;25972;51.854;4.534;2023-03-30T08:45:11;13.30;99.90
40253;DHT22;25972;51.854;4.534;2023-03-30T08:47:40;13.40;99.90
40253;DHT22;25972;51.854;4.534;2023-03-30T08:50:46;13.60;99.90
40253;DHT22;25972;51.854;4.534;2023-03-30T08:53:07;13.60;99.90
40253;DHT22;25972;51.854;4.534;2023-03-30T08:55:43;13.50;99.90
40253;DHT22;25972;51.854;4.534;2023-03-30T09:01:22;13.80;99.90
40253;DHT22;25972;51.854;4.534;2023-03-30T09:06:46;14.10;99.90
40253;DHT22;25972;51.854;4.534;2023-03-30T09:09:17;14.00;99.90
40253;DHT22;25972;51.854;4.534;2023-03-30T09:11:47;14.10;99.90
40253;DHT22;25972;51.854;4.534;2023-03-30T09:14:20;14.10;99.90
40253;DHT22;25972;51.854;4.534;2023-03-30T09:16:54;14.20;99.90
40253;DHT22;25972;51.854;4.534;2023-03-30T09:19:29;14.00;99.90
40253;DHT22;25972;51.854;4.534;2023-03-30T09:21:58;13.90;99.90
40253;DHT22;25972;51.854;4.534;2023-03-30T09:24:25;13.70;99.90
40253;DHT22;25972;51.854;4.534;2023-03-30T09:27:06;13.70;99.90
40253;DHT22;25972;51.854;4.534;2023-03-30T09:29:41;13.70;99.90
40253;DHT22;25972;51.854;4.534;2023-03-30T09:34:52;13.80;99.90
40253;DHT22;25972;51.854;4.534;2023-03-30T09:37:21;14.10;99.90
40253;DHT22;25972;51.854;4.534;2023-03-30T09:39:48;14.20;99.90
40253;DHT22;25972;51.854;4.534;2023-03-30T09:42:46;14.50;99.90
40253;DHT22;25972;51.854;4.534;2023-03-30T09:45:25;14.60;99.90
40253;DHT22;25972;51.854;4.534;2023-03-30T09:47:52;14.70;99.90
40253;DHT22;25972;51.854;4.534;2023-03-30T09:50:27;14.70;99.90
40253;DHT22;25972;51.854;4.534;2023-03-30T09:53:04;14.70;99.90
40253;DHT22;25972;51.854;4.534;2023-03-30T09:55:34;14.70;99.90
40253;DHT22;25972;51.854;4.534;2023-03-30T09:58:16;14.70;99.90
40253;DHT22;25972;51.854;4.534;2023-03-30T10:00:43;14.70;99.90
40253;DHT22;25972;51.854;4.534;2023-03-30T10:03:19;14.90;99.90
40253;DHT22;25972;51.854;4.534;2023-03-30T10:06:02;14.90;99.90
40253;DHT22;25972;51.854;4.534;2023-03-30T10:08:28;14.90;99.90
40253;DHT22;25972;51.854;4.534;2023-03-30T10:10:56;14.80;99.90
40253;DHT22;25972;51.854;4.534;2023-03-30T10:13:41;14.60;99.90
40253;DHT22;25972;51.854;4.534;2023-03-30T10:16:20;14.40;99.90
40253;DHT22;25972;51.854;4.534;2023-03-30T10:18:52;14.30;99.90
40253;DHT22;25972;51.854;4.534;2023-03-30T10:21:19;14.40;99.90
40253;DHT22;25972;51.854;4.534;2023-03-30T10:26:39;14.70;99.90
40253;DHT22;25972;51.854;4.534;2023-03-30T10:29:12;14.60;99.90
40253;DHT22;25972;51.854;4.534;2023-03-30T10:31:42;14.60;99.90
40253;DHT22;25972;51.854;4.534;2023-03-30T10:34:22;14.60;99.90
40253;DHT22;25972;51.854;4.534;2023-03-30T10:36:53;14.70;99.90
40253;DHT22;25972;51.854;4.534;2023-03-30T10:39:30;14.70;99.90
40253;DHT22;25972;51.854;4.534;2023-03-30T10:41:59;14.70;99.90
40253;DHT22;25972;51.854;4.534;2023-03-30T10:44:31;14.80;99.90
40253;DHT22;25972;51.854;4.534;2023-03-30T10:47:29;14.80;99.90
40253;DHT22;25972;51.854;4.534;2023-03-30T10:58:42;15.10;99.90
40253;DHT22;25972;51.854;4.534;2023-03-30T11:01:20;15.10;99.90
40253;DHT22;25972;51.854;4.534;2023-03-30T11:03:53;15.20;99.90
40253;DHT22;25972;51.854;4.534;2023-03-30T11:06:30;15.10;99.90
40253;DHT22;25972;51.854;4.534;2023-03-30T11:09:01;15.10;99.90
40253;DHT22;25972;51.854;4.534;2023-03-30T11:11:39;15.10;99.90
40253;DHT22;25972;51.854;4.534;2023-03-30T11:14:11;15.00;99.90
40253;DHT22;25972;51.854;4.534;2023-03-30T11:16:46;15.10;99.90
40253;DHT22;25972;51.854;4.534;2023-03-30T11:19:21;15.00;99.90
40253;DHT22;25972;51.854;4.534;2023-03-30T11:24:47;14.80;99.90
40253;DHT22;25972;51.854;4.534;2023-03-30T11:27:23;14.80;99.90
40253;DHT22;25972;51.854;4.534;2023-03-30T11:30:14;14.70;99.90
40253;DHT22;25972;51.854;4.534;2023-03-30T11:35:40;14.50;99.90
40253;DHT22;25972;51.854;4.534;2023-03-30T11:38:20;14.50;99.90
40253;DHT22;25972;51.854;4.534;2023-03-30T11:41:02;14.50;99.90
40253;DHT22;25972;51.854;4.534;2023-03-30T11:43:30;14.60;99.90
40253;DHT22;25972;51.854;4.534;2023-03-30T11:46:27;14.70;99.90
40253;DHT22;25972;51.854;4.534;2023-03-30T11:51:56;14.70;99.90
40253;DHT22;25972;51.854;4.534;2023-03-30T11:59:44;14.60;99.90
40253;DHT22;25972;51.854;4.534;2023-03-30T12:05:04;14.70;99.90
40253;DHT22;25972;51.854;4.534;2023-03-30T12:07:52;14.70;99.90
40253;DHT22;25972;51.854;4.534;2023-03-30T12:10:54;14.80;99.90
40253;DHT22;25972;51.854;4.534;2023-03-30T12:13:25;14.90;99.90
40253;DHT22;25972;51.854;4.534;2023-03-30T12:16:17;14.80;99.90
40253;DHT22;25972;51.854;4.534;2023-03-30T12:18:57;14.70;99.90
40253;DHT22;25972;51.854;4.534;2023-03-30T12:23:56;14.60;99.90
40253;DHT22;25972;51.854;4.534;2023-03-30T12:26:28;14.60;99.90
40253;DHT22;25972;51.854;4.534;2023-03-30T12:28:56;14.90;99.90
40253;DHT22;25972;51.854;4.534;2023-03-30T12:34:22;15.00;99.90
40253;DHT22;25972;51.854;4.534;2023-03-30T12:39:59;15.10;99.90
40253;DHT22;25972;51.854;4.534;2023-03-30T12:42:26;15.20;99.90
40253;DHT22;25972;51.854;4.534;2023-03-30T12:50:28;15.50;99.90
40253;DHT22;25972;51.854;4.534;2023-03-30T12:56:19;15.50;99.90
40253;DHT22;25972;51.854;4.534;2023-03-30T13:02:09;15.80;99.90
40253;DHT22;25972;51.854;4.534;2023-03-30T13:04:43;15.90;99.90
40253;DHT22;25972;51.854;4.534;2023-03-30T13:07:30;15.90;99.90
40253;DHT22;25972;51.854;4.534;2023-03-30T13:10:32;15.80;99.90
40253;DHT22;25972;51.854;4.534;2023-03-30T13:12:49;15.90;99.90
40253;DHT22;25972;51.854;4.534;2023-03-30T13:17:59;15.70;99.90
40253;DHT22;25972;51.854;4.534;2023-03-30T13:20:32;15.60;99.90
40253;DHT22;25972;51.854;4.534;2023-03-30T13:23:02;15.50;99.90
40253;DHT22;25972;51.854;4.534;2023-03-30T13:34:27;15.60;99.90
40253;DHT22;25972;51.854;4.534;2023-03-30T13:40:06;15.90;99.90
40253;DHT22;25972;51.854;4.534;2023-03-30T13:42:42;16.00;99.90
40253;DHT22;25972;51.854;4.534;2023-03-30T13:51:18;16.00;99.90
40253;DHT22;25972;51.854;4.534;2023-03-30T13:53:55;16.00;99.90
40253;DHT22;25972;51.854;4.534;2023-03-30T13:56:23;15.90;99.90
40253;DHT22;25972;51.854;4.534;2023-03-30T13:59:13;15.90;99.90
40253;DHT22;25972;51.854;4.534;2023-03-30T14:01:53;16.00;99.90
40253;DHT22;25972;51.854;4.534;2023-03-30T14:04:21;16.00;99.90
40253;DHT22;25972;51.854;4.534;2023-03-30T14:06:48;16.10;99.90
40253;DHT22;25972;51.854;4.534;2023-03-30T14:09:24;16.10;99.90
40253;DHT22;25972;51.854;4.534;2023-03-30T14:11:56;16.20;99.90
40253;DHT22;25972;51.854;4.534;2023-03-30T14:14:35;16.10;99.90
40253;DHT22;25972;51.854;4.534;2023-03-30T14:17:11;16.10;99.90
40253;DHT22;25972;51.854;4.534;2023-03-30T14:19:41;16.40;99.90
40253;DHT22;25972;51.854;4.534;2023-03-30T14:22:19;16.40;99.90
40253;DHT22;25972;51.854;4.534;2023-03-30T14:25:04;16.50;99.90
40253;DHT22;25972;51.854;4.534;2023-03-30T14:27:36;16.60;99.90
40253;DHT22;25972;51.854;4.534;2023-03-30T14:30:21;16.50;99.90
40253;DHT22;25972;51.854;4.534;2023-03-30T14:33:05;16.30;99.90
40253;DHT22;25972;51.854;4.534;2023-03-30T14:35:31;16.30;99.90
40253;DHT22;25972;51.854;4.534;2023-03-30T14:37:58;16.10;99.90
40253;DHT22;25972;51.854;4.534;2023-03-30T14:40:24;16.00;99.90
40253;DHT22;25972;51.854;4.534;2023-03-30T14:42:50;15.90;99.90
40253;DHT22;25972;51.854;4.534;2023-03-30T14:45:17;15.80;99.90
40253;DHT22;25972;51.854;4.534;2023-03-30T14:47:45;15.80;99.90
40253;DHT22;25972;51.854;4.534;2023-03-30T14:50:15;15.80;99.90
40253;DHT22;25972;51.854;4.534;2023-03-30T14:52:45;15.70;99.90
40253;DHT22;25972;51.854;4.534;2023-03-30T14:55:16;15.60;99.90
40253;DHT22;25972;51.854;4.534;2023-03-30T14:57:43;15.70;99.90
40253;DHT22;25972;51.854;4.534;2023-03-30T15:00:14;15.70;99.90
40253;DHT22;25972;51.854;4.534;2023-03-30T15:02:47;15.70;99.90
40253;DHT22;25972;51.854;4.534;2023-03-30T15:05:16;15.60;99.90
40253;DHT22;25972;51.854;4.534;2023-03-30T15:07:48;15.60;99.90
40253;DHT22;25972;51.854;4.534;2023-03-30T15:10:36;15.60;99.90
40253;DHT22;25972;51.854;4.534;2023-03-30T15:13:08;15.50;99.90
40253;DHT22;25972;51.854;4.534;2023-03-30T15:15:37;15.50;99.90
40253;DHT22;25972;51.854;4.534;2023-03-30T15:18:04;15.60;99.90
40253;DHT22;25972;51.854;4.534;2023-03-30T15:20:30;15.50;99.90
40253;DHT22;25972;51.854;4.534;2023-03-30T15:22:56;15.50;99.90
40253;DHT22;25972;51.854;4.534;2023-03-30T15:25:33;15.40;99.90
40253;DHT22;25972;51.854;4.534;2023-03-30T15:28:06;15.30;99.90
40253;DHT22;25972;51.854;4.534;2023-03-30T15:30:39;15.20;99.90
40253;DHT22;25972;51.854;4.534;2023-03-30T15:33:34;15.30;99.90
40253;DHT22;25972;51.854;4.534;2023-03-30T15:36:17;15.20;99.90
40253;DHT22;25972;51.854;4.534;2023-03-30T15:39:03;15.10;99.90
40253;DHT22;25972;51.854;4.534;2023-03-30T15:44:22;15.30;99.90
40253;DHT22;25972;51.854;4.534;2023-03-30T15:46:49;15.30;99.90
40253;DHT22;25972;51.854;4.534;2023-03-30T15:49:20;15.30;99.90
40253;DHT22;25972;51.854;4.534;2023-03-30T15:51:53;15.20;99.90
40253;DHT22;25972;51.854;4.534;2023-03-30T15:59:43;15.00;99.90
40253;DHT22;25972;51.854;4.534;2023-03-30T16:04:55;14.90;99.90
40253;DHT22;25972;51.854;4.534;2023-03-30T16:07:24;14.90;99.90
40253;DHT22;25972;51.854;4.534;2023-03-30T16:09:50;14.90;99.90
40253;DHT22;25972;51.854;4.534;2023-03-30T16:12:28;14.70;99.90
40253;DHT22;25972;51.854;4.534;2023-03-30T16:14:55;14.70;99.90
40253;DHT22;25972;51.854;4.534;2023-03-30T16:17:21;14.70;99.90
40253;DHT22;25972;51.854;4.534;2023-03-30T16:19:47;14.70;99.90
40253;DHT22;25972;51.854;4.534;2023-03-30T16:22:14;14.70;99.90
40253;DHT22;25972;51.854;4.534;2023-03-30T16:24:41;14.60;99.90
40253;DHT22;25972;51.854;4.534;2023-03-30T16:27:09;14.50;99.90
40253;DHT22;25972;51.854;4.534;2023-03-30T16:29:35;14.40;99.90
40253;DHT22;25972;51.854;4.534;2023-03-30T16:32:01;14.30;99.90
40253;DHT22;25972;51.854;4.534;2023-03-30T16:34:27;14.40;99.90
40253;DHT22;25972;51.854;4.534;2023-03-30T16:36:53;14.40;99.90
40253;DHT22;25972;51.854;4.534;2023-03-30T16:39:20;14.40;99.90
40253;DHT22;25972;51.854;4.534;2023-03-30T16:41:47;14.20;99.90
40253;DHT22;25972;51.854;4.534;2023-03-30T16:44:18;14.20;99.90
40253;DHT22;25972;51.854;4.534;2023-03-30T16:46:45;14.20;99.90
40253;DHT22;25972;51.854;4.534;2023-03-30T16:49:17;14.20;99.90
40253;DHT22;25972;51.854;4.534;2023-03-30T16:51:46;14.10;99.90
40253;DHT22;25972;51.854;4.534;2023-03-30T16:54:12;14.10;99.90
40253;DHT22;25972;51.854;4.534;2023-03-30T16:56:38;14.00;99.90
40253;DHT22;25972;51.854;4.534;2023-03-30T16:59:08;13.90;99.90
40253;DHT22;25972;51.854;4.534;2023-03-30T17:01:39;13.90;99.90
40253;DHT22;25972;51.854;4.534;2023-03-30T17:04:05;13.80;99.90
40253;DHT22;25972;51.854;4.534;2023-03-30T17:06:34;13.70;99.90
40253;DHT22;25972;51.854;4.534;2023-03-30T17:09:00;13.60;99.90
40253;DHT22;25972;51.854;4.534;2023-03-30T17:11:26;13.60;99.90
40253;DHT22;25972;51.854;4.534;2023-03-30T17:13:52;13.60;99.90
40253;DHT22;25972;51.854;4.534;2023-03-30T17:16:17;13.60;99.90
40253;DHT22;25972;51.854;4.534;2023-03-30T17:18:44;13.50;99.90
40253;DHT22;25972;51.854;4.534;2023-03-30T17:21:10;13.50;99.90
40253;DHT22;25972;51.854;4.534;2023-03-30T17:23:46;13.40;99.90
40253;DHT22;25972;51.854;4.534;2023-03-30T17:26:12;13.40;99.90
40253;DHT22;25972;51.854;4.534;2023-03-30T17:28:39;13.30;99.90
40253;DHT22;25972;51.854;4.534;2023-03-30T17:31:11;13.30;99.90
40253;DHT22;25972;51.854;4.534;2023-03-30T17:33:37;13.30;99.90
40253;DHT22;25972;51.854;4.534;2023-03-30T17:36:09;13.20;99.90
40253;DHT22;25972;51.854;4.534;2023-03-30T17:38:35;13.20;99.90
40253;DHT22;25972;51.854;4.534;2023-03-30T17:41:02;13.20;99.90
40253;DHT22;25972;51.854;4.534;2023-03-30T17:43:28;13.10;99.90
40253;DHT22;25972;51.854;4.534;2023-03-30T17:45:54;13.00;99.90
40253;DHT22;25972;51.854;4.534;2023-03-30T17:48:20;13.00;99.90
40253;DHT22;25972;51.854;4.534;2023-03-30T17:50:48;13.00;99.90
40253;DHT22;25972;51.854;4.534;2023-03-30T17:53:16;12.90;99.90
40253;DHT22;25972;51.854;4.534;2023-03-30T17:55:47;12.90;99.90
40253;DHT22;25972;51.854;4.534;2023-03-30T17:58:23;12.90;99.90
40253;DHT22;25972;51.854;4.534;2023-03-30T18:00:51;12.80;99.90
40253;DHT22;25972;51.854;4.534;2023-03-30T18:03:19;12.70;99.90
40253;DHT22;25972;51.854;4.534;2023-03-30T18:05:46;12.70;99.90
40253;DHT22;25972;51.854;4.534;2023-03-30T18:08:15;12.60;99.90
40253;DHT22;25972;51.854;4.534;2023-03-30T18:10:52;12.60;99.90
40253;DHT22;25972;51.854;4.534;2023-03-30T18:13:19;12.60;99.90
40253;DHT22;25972;51.854;4.534;2023-03-30T18:15:46;12.50;99.90
40253;DHT22;25972;51.854;4.534;2023-03-30T18:18:18;12.50;99.90
40253;DHT22;25972;51.854;4.534;2023-03-30T18:20:53;12.50;99.90
40253;DHT22;25972;51.854;4.534;2023-03-30T18:23:19;12.40;99.90
40253;DHT22;25972;51.854;4.534;2023-03-30T18:25:46;12.30;99.90